createdAt,value
2018-09-11T00:01:02.749Z,6.05
2018-09-11T00:03:31.196Z,6.20
2018-09-11T00:05:59.624Z,5.90
2018-09-11T00:08:28.025Z,5.60
2018-09-11T00:10:56.464Z,5.83
2018-09-11T00:13:24.886Z,6.00
2018-09-11T00:15:53.345Z,6.00
2018-09-11T00:18:21.692Z,5.60
2018-09-11T00:20:50.053Z,5.57
2018-09-11T00:23:18.506Z,5.30
2018-09-11T00:25:46.940Z,6.50
2018-09-11T00:28:15.364Z,5.30
2018-09-11T00:30:43.784Z,6.03
2018-09-11T00:33:13.149Z,6.17
2018-09-11T00:35:42.475Z,6.00
2018-09-11T00:38:10.988Z,5.63
2018-09-11T00:40:39.385Z,6.72
2018-09-11T00:43:07.870Z,6.17
2018-09-11T00:45:36.383Z,5.43
2018-09-11T00:48:04.764Z,5.40
2018-09-11T00:50:33.200Z,6.10
2018-09-11T00:53:01.573Z,6.67
2018-09-11T00:55:29.964Z,6.10
2018-09-11T00:57:58.396Z,6.83
2018-09-11T01:00:26.760Z,6.47
2018-09-11T01:02:55.187Z,6.30
2018-09-11T01:05:23.551Z,6.60
2018-09-11T01:07:52.059Z,6.80
2018-09-11T01:10:20.474Z,6.23
2018-09-11T01:12:48.833Z,6.33
2018-09-11T01:15:17.233Z,6.83
2018-09-11T01:17:45.607Z,7.72
2018-09-11T01:20:14.047Z,7.33
2018-09-11T01:22:42.452Z,7.13
2018-09-11T01:25:10.871Z,7.47
2018-09-11T01:27:39.500Z,7.27
2018-09-11T01:30:08.160Z,8.20
2018-09-11T01:32:36.580Z,6.93
2018-09-11T01:35:05.834Z,6.83
2018-09-11T01:37:34.180Z,6.97
2018-09-11T01:40:02.539Z,7.70
2018-09-11T01:42:30.961Z,7.50
2018-09-11T01:44:59.385Z,6.70
2018-09-11T01:47:27.802Z,6.40
2018-09-11T01:49:56.201Z,5.97
2018-09-11T01:52:24.615Z,7.13
2018-09-11T01:54:53.025Z,6.33
2018-09-11T01:57:21.456Z,7.75
2018-09-11T01:59:49.865Z,6.90
2018-09-11T02:02:18.348Z,7.50
2018-09-11T02:04:46.860Z,7.03
2018-09-11T02:07:15.294Z,7.70
2018-09-11T02:09:43.738Z,7.80
2018-09-11T02:12:12.148Z,7.53
2018-09-11T02:14:40.630Z,7.53
2018-09-11T02:17:08.927Z,6.97
2018-09-11T02:19:37.425Z,7.40
2018-09-11T02:22:06.047Z,7.10
2018-09-11T02:24:34.415Z,7.03
2018-09-11T02:27:02.811Z,7.60
2018-09-11T02:29:31.305Z,7.13
2018-09-11T02:32:00.005Z,7.45
2018-09-11T02:34:31.837Z,6.73
2018-09-11T02:37:00.382Z,8.00
2018-09-11T02:39:28.794Z,7.80
2018-09-11T02:41:57.239Z,7.90
2018-09-11T02:44:25.712Z,7.57
2018-09-11T02:46:54.151Z,7.30
2018-09-11T02:49:22.620Z,8.43
2018-09-11T02:51:51.009Z,7.70
2018-09-11T02:54:19.435Z,7.40
2018-09-11T02:56:47.824Z,7.47
2018-09-11T02:59:16.303Z,7.40
2018-09-11T03:01:44.790Z,8.00
2018-09-11T03:04:13.176Z,7.87
2018-09-11T03:06:41.619Z,7.00
2018-09-11T03:09:09.976Z,7.20
2018-09-11T03:11:38.357Z,7.90
2018-09-11T03:14:06.745Z,7.70
2018-09-11T03:16:41.768Z,7.83
2018-09-11T03:19:10.190Z,8.23
2018-09-11T03:21:38.677Z,8.47
2018-09-11T03:24:07.227Z,7.30
2018-09-11T03:26:35.675Z,8.07
2018-09-11T03:29:04.146Z,7.97
2018-09-11T03:31:32.612Z,7.80
2018-09-11T03:34:01.059Z,6.30
2018-09-11T03:36:29.495Z,8.20
2018-09-11T03:38:57.925Z,7.67
2018-09-11T03:41:27.899Z,7.73
2018-09-11T03:43:56.502Z,8.20
2018-09-11T03:46:24.904Z,7.90
2018-09-11T03:48:53.312Z,7.73
2018-09-11T03:51:23.428Z,8.00
2018-09-11T03:53:53.184Z,8.27
2018-09-11T03:56:21.609Z,8.10
2018-09-11T03:58:51.126Z,8.50
2018-09-11T04:01:19.524Z,8.77
2018-09-11T04:03:47.868Z,7.93
2018-09-11T04:06:16.279Z,8.00
2018-09-11T04:08:44.662Z,8.10
2018-09-11T04:11:13.066Z,8.87
2018-09-11T04:13:41.521Z,9.27
2018-09-11T04:16:09.906Z,8.30
2018-09-11T04:18:39.281Z,8.50
2018-09-11T04:21:09.045Z,8.75
2018-09-11T04:23:37.982Z,9.00
2018-09-11T04:26:09.703Z,8.40
2018-09-11T04:28:39.812Z,8.40
2018-09-11T04:36:07.617Z,9.23
2018-09-11T04:38:35.984Z,8.83
2018-09-11T04:41:04.349Z,8.80
2018-09-11T04:43:32.728Z,8.80
2018-09-11T04:46:01.110Z,9.60
2018-09-11T04:48:29.597Z,8.90
2018-09-11T04:50:57.932Z,8.50
2018-09-11T04:53:26.372Z,8.48
2018-09-11T04:55:55.171Z,8.15
2018-09-11T04:58:23.614Z,9.10
2018-09-11T05:00:52.268Z,8.50
2018-09-11T05:03:20.712Z,9.40
2018-09-11T05:05:49.094Z,8.90
2018-09-11T05:08:17.716Z,8.88
2018-09-11T05:10:46.184Z,8.93
2018-09-11T05:13:14.642Z,9.70
2018-09-11T05:15:43.065Z,8.33
2018-09-11T05:18:11.489Z,9.00
2018-09-11T05:20:39.896Z,9.50
2018-09-11T05:23:08.300Z,8.30
2018-09-11T05:25:36.753Z,10.07
2018-09-11T05:28:05.272Z,9.67
2018-09-11T05:30:33.687Z,9.55
2018-09-11T05:33:05.050Z,9.73
2018-09-11T05:35:33.512Z,8.70
2018-09-11T05:38:02.325Z,10.03
2018-09-11T05:40:31.470Z,8.70
2018-09-11T05:43:01.609Z,9.10
2018-09-11T05:45:32.221Z,9.10
2018-09-11T05:48:00.620Z,9.20
2018-09-11T05:50:29.670Z,9.00
2018-09-11T05:52:58.286Z,9.43
2018-09-11T05:55:26.724Z,10.47
2018-09-11T05:57:55.384Z,10.63
2018-09-11T06:00:24.688Z,9.97
2018-09-11T06:03:01.785Z,10.18
2018-09-11T06:05:38.800Z,10.17
2018-09-11T06:08:07.176Z,10.00
2018-09-11T06:10:35.622Z,9.87
2018-09-11T06:13:04.063Z,10.00
2018-09-11T06:15:32.542Z,13.70
2018-09-11T06:18:00.980Z,19.80
2018-09-11T06:20:29.369Z,29.70
2018-09-11T06:23:02.231Z,18.77
2018-09-11T06:25:30.855Z,19.37
2018-09-11T06:27:59.221Z,32.83
2018-09-11T06:30:27.673Z,15.40
2018-09-11T06:32:56.418Z,11.57
2018-09-11T06:35:25.029Z,10.50
2018-09-11T06:37:53.436Z,10.85
2018-09-11T06:40:22.109Z,12.10
2018-09-11T06:42:51.446Z,9.90
2018-09-11T06:45:19.814Z,10.60
2018-09-11T06:47:48.289Z,10.23
2018-09-11T06:50:16.739Z,10.88
2018-09-11T06:52:45.174Z,10.63
2018-09-11T06:55:13.604Z,11.53
2018-09-11T06:57:42.025Z,9.60
2018-09-11T07:00:10.464Z,9.00
2018-09-11T07:02:38.922Z,10.70
2018-09-11T07:05:07.372Z,9.83
2018-09-11T07:07:36.675Z,9.90
2018-09-11T07:10:05.592Z,10.87
2018-09-11T07:12:34.003Z,9.87
2018-09-11T07:15:02.416Z,9.90
2018-09-11T07:17:31.132Z,9.10
2018-09-11T07:19:59.694Z,8.80
2018-09-11T07:22:28.198Z,9.10
2018-09-11T07:24:56.988Z,9.17
2018-09-11T07:27:25.380Z,7.93
2018-09-11T07:29:54.098Z,8.27
2018-09-11T07:32:22.863Z,7.57
2018-09-11T07:34:51.225Z,8.00
2018-09-11T07:37:19.627Z,6.90
2018-09-11T07:39:47.970Z,5.70
2018-09-11T07:42:16.402Z,5.60
2018-09-11T07:44:44.778Z,5.53
2018-09-11T07:47:13.157Z,4.55
2018-09-11T07:49:41.513Z,4.37
2018-09-11T07:52:09.958Z,5.07
2018-09-11T07:54:38.341Z,4.13
2018-09-11T07:57:06.763Z,4.77
2018-09-11T07:59:35.196Z,4.77
2018-09-11T08:02:03.627Z,4.37
2018-09-11T08:04:32.047Z,4.13
2018-09-11T08:07:00.802Z,4.67
2018-09-11T08:09:29.191Z,4.40
2018-09-11T08:11:57.654Z,4.47
2018-09-11T08:14:25.995Z,3.95
2018-09-11T08:16:54.549Z,3.67
2018-09-11T08:19:22.993Z,4.50
2018-09-11T08:21:51.486Z,3.72
2018-09-11T08:24:19.925Z,3.67
2018-09-11T08:26:48.334Z,4.30
2018-09-11T08:29:16.781Z,3.90
2018-09-11T08:31:45.101Z,3.87
2018-09-11T08:34:13.583Z,3.30
2018-09-11T08:36:41.995Z,3.37
2018-09-11T08:39:11.254Z,3.90
2018-09-11T08:41:39.664Z,3.22
2018-09-11T08:44:08.087Z,3.17
2018-09-11T08:46:36.739Z,3.13
2018-09-11T08:49:05.139Z,3.40
2018-09-11T08:51:33.568Z,3.03
2018-09-11T08:54:01.931Z,3.30
2018-09-11T08:56:30.327Z,2.75
2018-09-11T08:58:58.759Z,2.60
2018-09-11T09:01:27.172Z,2.70
2018-09-11T09:03:55.582Z,2.93
2018-09-11T09:06:24.085Z,2.40
2018-09-11T09:08:52.475Z,2.73
2018-09-11T09:11:20.859Z,2.93
2018-09-11T09:13:49.566Z,3.23
2018-09-11T09:16:18.298Z,2.50
2018-09-11T09:18:46.789Z,2.95
2018-09-11T09:21:15.197Z,2.70
2018-09-11T09:23:43.661Z,2.30
2018-09-11T09:26:13.129Z,2.65
2018-09-11T09:28:41.578Z,2.50
2018-09-11T09:31:09.931Z,2.43
2018-09-11T09:33:38.304Z,2.40
2018-09-11T09:36:06.714Z,2.77
2018-09-11T09:38:35.090Z,3.10
2018-09-11T09:41:03.488Z,2.47
2018-09-11T09:43:31.921Z,2.33
2018-09-11T09:46:00.361Z,2.40
2018-09-11T09:48:28.776Z,2.90
2018-09-11T09:50:57.291Z,2.33
2018-09-11T09:53:25.652Z,3.33
2018-09-11T09:55:54.067Z,2.60
2018-09-11T09:58:22.499Z,2.70
2018-09-11T10:00:56.892Z,2.75
2018-09-11T10:03:25.557Z,2.37
2018-09-11T10:05:53.960Z,2.33
2018-09-11T10:08:22.414Z,2.90
2018-09-11T10:10:50.828Z,2.33
2018-09-11T10:13:19.237Z,2.90
2018-09-11T10:15:47.659Z,2.85
2018-09-11T10:18:16.281Z,2.50
2018-09-11T10:20:44.711Z,2.43
2018-09-11T10:23:13.083Z,2.80
2018-09-11T10:25:42.050Z,2.83
2018-09-11T10:28:10.578Z,3.23
2018-09-11T10:30:38.982Z,2.70
2018-09-11T10:33:07.464Z,2.70
2018-09-11T10:35:35.850Z,2.80
2018-09-11T10:38:04.318Z,2.60
2018-09-11T10:40:32.695Z,2.40
2018-09-11T10:43:01.261Z,3.07
2018-09-11T10:45:30.232Z,2.50
2018-09-11T10:47:58.617Z,2.30
2018-09-11T10:50:27.021Z,2.27
2018-09-11T10:52:55.435Z,2.40
2018-09-11T10:55:23.852Z,2.00
2018-09-11T10:57:52.236Z,2.30
2018-09-11T11:00:20.668Z,2.10
2018-09-11T11:02:49.093Z,1.70
2018-09-11T11:05:17.503Z,2.33
2018-09-11T11:07:45.868Z,2.10
2018-09-11T11:10:14.314Z,1.60
2018-09-11T11:12:42.805Z,1.70
2018-09-11T11:15:11.237Z,1.77
2018-09-11T11:17:39.650Z,1.80
2018-09-11T11:20:08.178Z,1.83
2018-09-11T11:22:36.611Z,1.80
2018-09-11T11:25:05.985Z,1.80
2018-09-11T11:27:34.414Z,1.97
2018-09-11T11:30:02.804Z,1.90
2018-09-11T11:32:31.238Z,1.60
2018-09-11T11:34:59.642Z,2.08
2018-09-11T11:37:28.277Z,2.20
2018-09-11T11:39:56.489Z,2.03
2018-09-11T11:42:24.952Z,1.70
2018-09-11T11:44:53.296Z,1.90
2018-09-11T11:47:21.708Z,1.83
2018-09-11T11:49:51.449Z,2.23
2018-09-11T11:52:20.148Z,1.97
2018-09-11T11:54:49.155Z,1.87
2018-09-11T11:57:17.586Z,2.03
2018-09-11T11:59:46.038Z,1.63
2018-09-11T12:02:14.486Z,1.50
2018-09-11T12:04:42.885Z,1.80
2018-09-11T12:07:11.314Z,1.60
2018-09-11T12:09:39.808Z,1.70
2018-09-11T12:12:08.314Z,1.67
2018-09-11T12:14:36.661Z,1.70
2018-09-11T12:17:05.398Z,1.67
2018-09-11T12:19:33.791Z,1.87
2018-09-11T12:22:02.170Z,2.00
2018-09-11T12:24:30.645Z,1.55
2018-09-11T12:26:59.060Z,2.00
2018-09-11T12:29:27.432Z,1.70
2018-09-11T12:31:55.820Z,1.77
2018-09-11T12:34:24.271Z,1.80
2018-09-11T12:36:52.681Z,1.87
2018-09-11T12:39:21.110Z,1.60
2018-09-11T12:41:49.524Z,1.90
2018-09-11T12:44:17.897Z,1.67
2018-09-11T12:46:47.398Z,1.50
2018-09-11T12:49:16.249Z,1.77
2018-09-11T12:51:45.393Z,1.87
2018-09-11T12:54:13.816Z,1.73
2018-09-11T12:56:43.212Z,1.60
2018-09-11T12:59:11.737Z,1.77
2018-09-11T13:01:40.192Z,2.20
2018-09-11T13:04:08.728Z,1.80
2018-09-11T13:06:37.104Z,1.93
2018-09-11T13:09:06.752Z,2.00
2018-09-11T13:11:35.148Z,2.20
2018-09-11T13:14:03.744Z,1.87
2018-09-11T13:16:32.149Z,2.30
2018-09-11T13:19:00.572Z,2.10
2018-09-11T13:21:28.956Z,2.40
2018-09-11T13:23:57.414Z,2.10
2018-09-11T13:26:25.885Z,2.07
2018-09-11T13:28:54.348Z,2.20
2018-09-11T13:31:22.784Z,2.20
2018-09-11T13:33:51.299Z,2.13
2018-09-11T13:36:19.747Z,2.57
2018-09-11T13:38:48.126Z,2.00
2018-09-11T13:41:16.502Z,2.27
2018-09-11T13:43:44.829Z,1.90
2018-09-11T13:46:13.274Z,2.13
2018-09-11T13:48:42.913Z,2.00
2018-09-11T13:51:11.410Z,1.93
2018-09-11T13:53:40.542Z,2.17
2018-09-11T13:56:09.088Z,2.23
2018-09-11T13:58:37.398Z,1.83
2018-09-11T14:01:06.291Z,1.93
2018-09-11T14:03:34.692Z,2.23
2018-09-11T14:06:03.102Z,2.90
2018-09-11T14:08:31.600Z,2.10
2018-09-11T14:10:59.973Z,1.90
2018-09-11T14:13:28.413Z,1.90
2018-09-11T14:15:56.858Z,2.00
2018-09-11T14:18:25.208Z,2.40
2018-09-11T14:20:53.651Z,2.40
2018-09-11T14:23:22.125Z,2.40
2018-09-11T14:25:50.588Z,2.50
2018-09-11T14:28:19.018Z,2.30
2018-09-11T14:30:47.411Z,1.82
2018-09-11T14:33:15.807Z,2.60
2018-09-11T14:35:44.285Z,2.10
2018-09-11T14:38:12.708Z,1.90
2018-09-11T14:40:41.099Z,2.40
2018-09-11T14:43:09.560Z,2.70
2018-09-11T14:45:38.044Z,2.03
2018-09-11T14:48:06.527Z,2.10
2018-09-11T14:50:34.932Z,1.70
2018-09-11T14:53:03.341Z,1.87
2018-09-11T14:55:31.772Z,2.60
2018-09-11T14:58:00.608Z,1.75
2018-09-11T15:00:29.051Z,2.27
2018-09-11T15:02:57.448Z,2.80
2018-09-11T15:05:32.484Z,2.53
2018-09-11T15:08:00.905Z,2.47
2018-09-11T15:10:29.300Z,1.83
2018-09-11T15:12:57.696Z,1.90
2018-09-11T15:15:26.029Z,2.40
2018-09-11T15:17:54.440Z,2.23
2018-09-11T15:20:22.880Z,2.60
2018-09-11T15:22:51.265Z,2.47
2018-09-11T15:25:19.732Z,2.30
2018-09-11T15:27:48.092Z,2.00
2018-09-11T15:30:16.564Z,2.00
2018-09-11T15:32:44.991Z,2.20
2018-09-11T15:35:13.517Z,2.43
2018-09-11T15:37:41.929Z,2.40
2018-09-11T15:40:10.339Z,2.77
2018-09-11T15:42:38.700Z,2.50
2018-09-11T15:45:07.109Z,2.70
2018-09-11T15:47:35.438Z,2.30
2018-09-11T15:50:04.049Z,2.47
2018-09-11T15:52:32.458Z,2.92
2018-09-11T15:55:01.000Z,2.43
2018-09-11T15:57:30.140Z,2.47
2018-09-11T15:59:59.444Z,2.60
2018-09-11T16:02:27.872Z,1.97
2018-09-11T16:04:58.075Z,2.37
2018-09-11T16:07:26.562Z,2.43
2018-09-11T16:09:55.048Z,2.40
2018-09-11T16:12:23.468Z,2.80
2018-09-11T16:14:52.071Z,2.70
2018-09-11T16:17:20.491Z,2.58
2018-09-11T16:19:49.105Z,2.27
2018-09-11T16:22:18.210Z,2.70
2018-09-11T16:24:46.667Z,2.00
2018-09-11T16:27:15.812Z,2.27
2018-09-11T16:29:44.966Z,2.30
2018-09-11T16:32:13.632Z,2.12
2018-09-11T16:34:42.715Z,2.20
2018-09-11T16:37:11.148Z,2.50
2018-09-11T16:39:39.818Z,2.43
2018-09-11T16:42:08.939Z,2.33
2018-09-11T16:44:38.884Z,2.50
2018-09-11T16:47:07.444Z,2.53
2018-09-11T16:49:36.402Z,2.10
2018-09-11T16:52:05.125Z,2.40
2018-09-11T16:54:33.823Z,2.50
2018-09-11T16:57:03.888Z,2.63
2018-09-11T16:59:32.754Z,2.72
2018-09-11T17:02:01.261Z,2.70
2018-09-11T17:04:30.533Z,2.77
2018-09-11T17:06:58.998Z,2.67
2018-09-11T17:09:27.461Z,2.50
2018-09-11T17:11:55.880Z,2.22
2018-09-11T17:14:24.698Z,2.90
2018-09-11T17:16:53.072Z,3.33
2018-09-11T17:19:21.477Z,3.37
2018-09-11T17:21:50.088Z,2.70
2018-09-11T17:24:19.008Z,2.53
2018-09-11T17:26:47.712Z,3.63
2018-09-11T17:29:16.166Z,2.60
2018-09-11T17:31:44.636Z,3.17
2018-09-11T17:34:13.034Z,3.27
2018-09-11T17:36:41.436Z,2.97
2018-09-11T17:39:11.321Z,2.43
2018-09-11T17:41:40.301Z,2.70
2018-09-11T17:44:08.764Z,2.40
2018-09-11T17:46:37.389Z,3.17
2018-09-11T17:49:06.121Z,2.77
2018-09-11T17:51:34.757Z,2.70
2018-09-11T17:54:03.579Z,2.87
2018-09-11T17:56:31.995Z,3.37
2018-09-11T17:59:00.760Z,2.80
2018-09-11T18:01:29.182Z,2.80
2018-09-11T18:03:57.822Z,2.80
2018-09-11T18:06:26.263Z,2.70
2018-09-11T18:08:54.665Z,2.40
2018-09-11T18:11:23.067Z,2.90
2018-09-11T18:13:51.539Z,2.70
2018-09-11T18:16:20.114Z,2.80
2018-09-11T18:18:48.524Z,2.50
2018-09-11T18:21:17.128Z,3.00
2018-09-11T18:23:51.408Z,2.63
2018-09-11T18:26:25.980Z,2.80
2018-09-11T18:28:56.792Z,2.70
2018-09-11T18:31:25.542Z,2.90
2018-09-11T18:33:53.998Z,3.15
2018-09-11T18:36:22.416Z,2.63
2018-09-11T18:38:50.874Z,2.43
2018-09-11T18:41:19.304Z,2.67
2018-09-11T18:43:47.837Z,2.87
2018-09-11T18:46:16.301Z,2.73
2018-09-11T18:48:44.757Z,2.90
2018-09-11T18:51:13.406Z,3.40
2018-09-11T18:53:42.637Z,3.40
2018-09-11T18:56:11.337Z,2.80
2018-09-11T18:58:39.811Z,3.30
2018-09-11T19:01:08.255Z,3.17
2018-09-11T19:03:37.044Z,2.93
2018-09-11T19:06:05.613Z,3.15
2018-09-11T19:08:38.068Z,3.10
2018-09-11T19:11:09.327Z,3.55
2018-09-11T19:13:37.722Z,3.30
2018-09-11T19:16:06.725Z,3.23
2018-09-11T19:18:35.550Z,3.80
2018-09-11T19:21:04.220Z,2.80
2018-09-11T19:23:33.356Z,3.40
2018-09-11T19:26:02.120Z,3.50
2018-09-11T19:28:35.010Z,3.57
2018-09-11T19:31:03.490Z,2.93
2018-09-11T19:33:32.166Z,3.37
2018-09-11T19:36:00.661Z,3.57
2018-09-11T19:38:30.150Z,3.47
2018-09-11T19:40:58.526Z,3.20
2018-09-11T19:43:26.986Z,3.23
2018-09-11T19:45:55.403Z,3.52
2018-09-11T19:48:24.018Z,3.03
2018-09-11T19:50:52.475Z,4.33
2018-09-11T19:53:20.880Z,3.40
2018-09-11T19:55:49.616Z,3.90
2018-09-11T19:58:19.750Z,3.75
2018-09-11T20:00:48.156Z,3.63
2018-09-11T20:03:16.774Z,3.30
2018-09-11T20:05:45.362Z,3.70
2018-09-11T20:08:13.856Z,2.60
2018-09-11T20:10:42.351Z,3.00
2018-09-11T20:13:10.868Z,3.20
2018-09-11T20:15:39.283Z,2.90
2018-09-11T20:18:08.237Z,3.72
2018-09-11T20:20:36.707Z,3.50
2018-09-11T20:23:13.842Z,3.63
2018-09-11T20:25:57.250Z,3.73
2018-09-11T20:28:26.792Z,3.10
2018-09-11T20:30:55.365Z,3.50
2018-09-11T20:33:23.848Z,3.50
2018-09-11T20:35:52.283Z,3.97
2018-09-11T20:38:21.283Z,3.58
2018-09-11T20:40:49.743Z,3.93
2018-09-11T20:43:18.181Z,3.67
2018-09-11T20:45:48.169Z,3.77
2018-09-11T20:48:16.953Z,3.70
2018-09-11T20:50:45.452Z,3.60
2018-09-11T20:53:23.268Z,3.60
2018-09-11T20:55:51.723Z,4.50
2018-09-11T20:58:20.181Z,2.90
2018-09-11T21:00:48.647Z,3.70
2018-09-11T21:03:17.098Z,3.90
2018-09-11T21:05:45.519Z,3.45
2018-09-11T21:08:13.945Z,3.65
2018-09-11T21:10:42.580Z,3.83
2018-09-11T21:13:11.024Z,3.60
2018-09-11T21:15:39.430Z,3.87
2018-09-11T21:18:07.840Z,3.60
2018-09-11T21:20:36.353Z,3.10
2018-09-11T21:23:04.798Z,4.50
2018-09-11T21:25:33.449Z,3.83
2018-09-11T21:28:02.393Z,3.70
2018-09-11T21:30:30.832Z,3.67
2018-09-11T21:33:00.152Z,3.80
2018-09-11T21:35:28.617Z,4.33
2018-09-11T21:37:57.017Z,3.70
2018-09-11T21:40:25.615Z,3.63
2018-09-11T21:42:54.021Z,3.40
2018-09-11T21:45:22.469Z,3.87
2018-09-11T21:47:51.134Z,3.07
2018-09-11T21:50:19.555Z,3.87
2018-09-11T21:52:48.044Z,4.00
2018-09-11T21:55:16.460Z,3.67
2018-09-11T21:57:45.475Z,4.37
2018-09-11T22:00:14.117Z,3.50
2018-09-11T22:02:43.023Z,4.10
2018-09-11T22:05:12.423Z,3.87
2018-09-11T22:07:40.877Z,4.25
2018-09-11T22:10:11.008Z,3.77
2018-09-11T22:12:39.490Z,4.40
2018-09-11T22:15:09.741Z,4.60
2018-09-11T22:17:43.864Z,3.92
2018-09-11T22:20:12.483Z,4.40
2018-09-11T22:22:41.492Z,4.40
2018-09-11T22:25:10.006Z,4.70
2018-09-11T22:27:38.560Z,3.83
2018-09-11T22:30:07.259Z,4.50
2018-09-11T22:32:35.662Z,5.30
2018-09-11T22:35:04.700Z,4.33
2018-09-11T22:37:33.411Z,4.30
2018-09-11T22:40:02.038Z,4.00
2018-09-11T22:42:30.553Z,4.57
2018-09-11T22:44:59.378Z,4.00
2018-09-11T22:47:29.589Z,4.40
2018-09-11T22:49:57.964Z,4.17
2018-09-11T22:52:27.410Z,4.00
2018-09-11T22:54:57.493Z,3.67
2018-09-11T22:57:25.850Z,4.40
2018-09-11T22:59:54.297Z,4.30
2018-09-11T23:02:22.830Z,4.75
2018-09-11T23:04:51.177Z,3.90
2018-09-11T23:07:20.160Z,3.93
2018-09-11T23:09:48.651Z,4.07
2018-09-11T23:12:17.560Z,4.22
2018-09-11T23:14:46.048Z,4.23
2018-09-11T23:17:16.318Z,4.13
2018-09-11T23:19:44.889Z,4.20
2018-09-11T23:22:13.356Z,4.20
2018-09-11T23:29:44.621Z,4.50
2018-09-11T23:32:16.660Z,4.12
2018-09-11T23:34:47.439Z,4.27
2018-09-11T23:37:16.373Z,3.47
2018-09-11T23:39:46.051Z,4.40
2018-09-11T23:42:14.518Z,4.50
2018-09-11T23:44:43.304Z,4.00
2018-09-11T23:47:12.719Z,3.70
2018-09-11T23:49:43.438Z,3.57
2018-09-11T23:52:12.032Z,4.20
2018-09-11T23:54:40.644Z,3.80
2018-09-11T23:57:09.542Z,4.10
2018-09-11T23:59:38.058Z,4.30
